Skip Navigation Links
NOAA logo - Click to go to the NOAA homepage
NOAA's National Weather Service
Alaska Aviation Weather Unit
  NWS logo - Click to go to the NWS homepage
Left Navbar Graphic     21 AKDT = 05 GMT

   
NOAA is celebrating 200 years of science, service, and stewardship. Visit the NOAA 200th celebration Web site to learn more.
USA.gov is the U.S. Government's official Web portal to all Federal, state and local government Web resources and services.
Facebook
NWS on Facebook

Important Change Regarding the AAWU Web Presence

 

Over the last several months, the AAWU has been working to navigate its webpages to a nationally supported server. Security, as well as other needs, have necessitated the change.  In the process, we have made an effort to enhance the functionality of our website, as well as some of our products. As of June 27, 2017, aawu.arh.noaa.gov will be discontinued. The new AAWU web address is weather.gov/aawu. It is now live and will run in-parallel with the old site until it is discontinued. Please send any feedback or questions regarding the new webpages to nws.ar.aawu.webauthors@noaa.gov.  Thank you for your patience during this time of transition.
AAWU Home :: Display TAF Add Bookmark
TAF PAGK 250217Z 2502/2524 34008KT P6SM VCSH BKN060
     FM250600 35004KT P6SM SCT060 BKN090
     FM251800 VRB05KT P6SM SCT100=

METAR PAGK 242353Z AUTO 32006KT 10SM SCT085 21/10 A3000 RMK AO2 SLP158 60001 T02110100 10211 20144 58013 TSNO= METAR PAGK 250053Z AUTO 29007KT 10SM FEW080 BKN095 17/09 A2999 RMK AO2 RAB01E23 SLP158 P0001 T01670089 TSNO= METAR PAGK 250153Z AUTO 24006KT 10SM BKN060 BKN075 OVC110 16/11 A2999 RMK AO2 SLP160 T01560106 TSNO= METAR PAGK 250253Z AUTO 28004KT 10SM FEW050 FEW070 BKN090 13/12 A2999 RMK AO2 RAB11E48 SLP159 P0001 60002 T01330117 56004 TSNO= METAR PAGK 250353Z AUTO 26007KT 10SM OVC060 14/12 A2999 RMK AO2 SLP160 T01390117 TSNO= METAR PAGK 250453Z AUTO 00000KT 10SM FEW060 BKN070 14/13 A3000 RMK AO2 SLP159 T01440128 TSNO=
 Alaska TAF Map

NOAA's National Weather Service
Alaska Aviation Weather Unit
6930 Sand Lake Road
Anchorage, AK 99502-1845
Disclaimer
Credits
Glossary
Privacy Policy
About Us
Career Opportunities
Contact AAWU Internet Services Site last modified: April, 17th 2012